Impacts TAF Board
For situational awareness. Not to be used for flight planning purposes.
IDs:

KSFO - San Francisco Intl, CA, US

Issued at 1159 UTC 16 Sep 2019
Updated at 1234 UTC 16 Sep 2019
Potential Impact None Slight Moderate High
Time<<17/01Z 17/02Z 17/03Z 17/04Z 17/05Z 17/06Z 17/07Z 17/08Z 17/09Z 17/10Z 17/11Z 17/12Z 17/13Z>>
Type PRVL PRVL PRVL PRVL PRVL PRVL PRVL PRVL PRVL PRVL PRVL PRVL PRVL
VIS >6 >6 >6 >6 >6 >6 >6 >6 >6 >6 >6 >6 >6
CIG -- -- -- -- -- -- -- -- -- -- -- -- --
Cover SCT SCT SCT FEW FEW FEW FEW FEW FEW FEW FEW FEW FEW
FltCat VFR VFR VFR VFR VFR VFR VFR VFR VFR VFR VFR VFR VFR
WX -- -- -- -- -- -- -- -- -- -- -- -- --
WDir 280 280 280 280 280 280 280 270 270 270 270 270 270
WSpd 17 17 17 12 12 12 12 8 8 8 8 8 8
WGst 27 27 27 -- -- -- -- -- -- -- -- -- --
Raw TAF
KSFO 161159Z 1612/1718 26012KT P6SM -SHRA SCT008 SCT015 OVC025
  TEMPO 1612/1616 3SM -RA BKN015 OVC020
  FM161800 27014G24KT P6SM VCSH BKN030
  FM162100 28017G27KT P6SM SCT040
  FM170400 28012KT P6SM FEW040
  FM170800 27008KT P6SM FEW015


METAR Board
Radar Display
Forecast Discussion
For situational awareness. Not to be used for flight planning purposes.